Time;durP1;ratioP1;P1;durP2;ratioP2;P2;SDS_P1;SDS_P2;PMS_P1;PMS_P2;Temp;Humidity;BMP_temperature;BMP_pressure;BME280_temperature;BME280_humidity;BME280_pressure;Samples;Min_cycle;Max_cycle;Signal;HPM_P1;HPM_P2
2024/02/26 00:01:10;;;;;;;2.15;0.98;;;13.40;68.10;;;;;;2368938;53;20993;-66
2024/02/26 00:03:41;;;;;;;2.30;0.90;;;13.30;68.10;;;;;;2367700;53;20958;-66
2024/02/26 00:06:08;;;;;;;3.05;1.12;;;13.30;68.10;;;;;;2368636;53;21057;-65
2024/02/26 00:08:34;;;;;;;2.10;0.90;;;13.30;68.20;;;;;;2368741;53;21069;-65
2024/02/26 00:11:00;;;;;;;2.20;0.88;;;13.30;68.20;;;;;;2369139;53;20994;-65
2024/02/26 00:13:27;;;;;;;1.50;0.55;;;13.30;68.20;;;;;;2369142;53;20997;-65
2024/02/26 00:15:55;;;;;;;2.58;0.55;;;13.30;68.30;;;;;;2368891;53;20958;-66
2024/02/26 00:18:22;;;;;;;1.20;0.50;;;13.30;68.30;;;;;;2621438;52;20945;-66
2024/02/26 00:20:48;;;;;;;1.75;0.68;;;13.20;68.10;;;;;;2369133;53;21856;-65
2024/02/26 00:23:17;;;;;;;1.15;0.50;;;13.20;68.00;;;;;;2369248;53;21050;-66
2024/02/26 00:25:47;;;;;;;1.90;0.60;;;13.20;67.80;;;;;;2368575;53;20954;-66
2024/02/26 00:28:13;;;;;;;1.12;0.50;;;13.10;67.80;;;;;;2369216;53;21076;-65
2024/02/26 00:30:42;;;;;;;1.42;0.50;;;13.10;68.00;;;;;;2620551;52;20962;-65
2024/02/26 00:33:09;;;;;;;0.80;0.40;;;13.00;67.80;;;;;;2622090;52;21344;-66
2024/02/26 00:35:36;;;;;;;1.08;0.45;;;13.00;68.10;;;;;;2620827;52;21029;-66
2024/02/26 00:38:03;;;;;;;1.25;0.60;;;13.00;68.20;;;;;;2369984;53;20940;-66
2024/02/26 00:40:29;;;;;;;0.75;0.40;;;12.90;68.20;;;;;;2367053;53;20993;-65
2024/02/26 00:42:56;;;;;;;0.75;0.35;;;12.90;68.30;;;;;;2368476;53;21072;-65
2024/02/26 00:45:23;;;;;;;1.10;0.47;;;12.90;68.40;;;;;;2621449;52;21384;-65
2024/02/26 00:47:49;;;;;;;1.02;0.40;;;12.80;68.40;;;;;;2368755;53;21448;-66
2024/02/26 00:50:16;;;;;;;1.05;0.35;;;12.80;68.40;;;;;;2368129;53;20941;-66
2024/02/26 00:52:42;;;;;;;0.88;0.35;;;12.80;68.40;;;;;;2600725;52;20951;-65
2024/02/26 00:55:09;;;;;;;1.12;0.40;;;12.70;68.10;;;;;;2340813;54;20995;-66
2024/02/26 00:57:36;;;;;;;0.70;0.40;;;12.70;68.10;;;;;;2368503;53;21870;-67
2024/02/26 01:00:03;;;;;;;1.33;0.40;;;12.70;68.20;;;;;;2620936;52;21001;-66
2024/02/26 01:02:29;;;;;;;1.42;0.50;;;12.60;68.10;;;;;;2620504;52;20982;-65
2024/02/26 01:04:55;;;;;;;0.77;0.32;;;12.60;68.20;;;;;;2369239;53;21049;-66
2024/02/26 01:07:21;;;;;;;1.35;0.40;;;12.50;68.30;;;;;;2369436;53;21775;-66
2024/02/26 01:09:48;;;;;;;1.30;0.30;;;12.50;68.40;;;;;;2616053;52;21334;-66
2024/02/26 01:12:15;;;;;;;0.77;0.40;;;12.40;68.40;;;;;;2349973;54;20970;-65
2024/02/26 01:14:42;;;;;;;0.43;0.28;;;12.40;68.50;;;;;;2368586;53;21092;-65
2024/02/26 01:17:11;;;;;;;1.23;0.32;;;12.40;68.60;;;;;;2621193;52;21041;-66
2024/02/26 01:19:38;;;;;;;0.85;0.40;;;12.30;68.70;;;;;;2620494;52;20978;-65
2024/02/26 01:22:04;;;;;;;1.77;0.43;;;12.30;68.70;;;;;;2369047;53;21005;-66
2024/02/26 01:24:30;;;;;;;1.10;0.40;;;12.30;68.80;;;;;;2369327;53;20950;-66
2024/02/26 01:26:57;;;;;;;1.27;0.40;;;12.20;68.80;;;;;;2368753;53;21269;-65
2024/02/26 01:29:23;;;;;;;0.88;0.40;;;12.20;68.90;;;;;;2368630;53;20959;-65
2024/02/26 01:31:52;;;;;;;0.65;0.40;;;12.20;69.10;;;;;;2621351;52;20966;-65
2024/02/26 01:34:19;;;;;;;0.60;0.32;;;12.20;69.10;;;;;;2621537;52;21005;-65
2024/02/26 01:36:45;;;;;;;1.17;0.50;;;12.20;69.20;;;;;;2367976;53;20982;-65
2024/02/26 01:39:12;;;;;;;2.25;0.50;;;12.10;69.10;;;;;;2363987;53;21592;-66
2024/02/26 01:41:39;;;;;;;2.05;0.80;;;12.10;69.20;;;;;;2602692;52;20926;-65
2024/02/26 01:44:06;;;;;;;1.08;0.40;;;12.10;69.20;;;;;;2366269;53;21354;-65
2024/02/26 01:46:34;;;;;;;1.20;0.52;;;12.10;69.30;;;;;;2368409;53;20950;-64
2024/02/26 01:49:00;;;;;;;2.08;0.62;;;12.00;69.20;;;;;;2621582;52;20957;-66
2024/02/26 01:51:28;;;;;;;2.08;0.50;;;12.00;69.30;;;;;;2621721;52;20986;-65
2024/02/26 01:53:54;;;;;;;1.00;0.40;;;12.00;69.30;;;;;;2369337;53;20970;-65
2024/02/26 01:56:21;;;;;;;1.17;0.50;;;12.00;69.20;;;;;;2369283;53;20930;-65
2024/02/26 01:58:48;;;;;;;0.82;0.40;;;12.00;69.30;;;;;;2620572;52;20953;-66
2024/02/26 02:01:15;;;;;;;0.30;0.20;;;11.90;69.20;;;;;;2369189;53;21381;-66
2024/02/26 02:03:41;;;;;;;0.70;0.40;;;11.90;69.20;;;;;;2368594;53;20950;-65
2024/02/26 02:06:08;;;;;;;1.15;0.40;;;11.90;69.20;;;;;;2621729;52;21403;-64
2024/02/26 02:08:35;;;;;;;0.47;0.30;;;11.90;69.30;;;;;;2368874;53;20941;-66
2024/02/26 02:11:01;;;;;;;1.12;0.32;;;11.90;69.30;;;;;;2621229;52;20985;-65
2024/02/26 02:13:30;;;;;;;0.75;0.40;;;11.80;69.30;;;;;;2369218;53;21407;-66
2024/02/26 02:15:56;;;;;;;1.45;0.45;;;11.80;69.30;;;;;;2621438;52;20997;-64
2024/02/26 02:18:23;;;;;;;0.28;0.28;;;11.80;69.30;;;;;;2369287;53;20922;-66
2024/02/26 02:20:49;;;;;;;1.75;0.50;;;11.80;69.30;;;;;;2368568;53;21316;-66
2024/02/26 02:23:15;;;;;;;0.70;0.40;;;11.80;69.30;;;;;;2369187;53;20934;-65
2024/02/26 02:25:43;;;;;;;1.12;0.47;;;11.80;69.40;;;;;;2368763;53;21014;-64
2024/02/26 02:28:09;;;;;;;0.70;0.35;;;11.80;69.40;;;;;;2621290;52;21026;-66
2024/02/26 02:30:36;;;;;;;1.12;0.40;;;11.80;69.40;;;;;;2621320;52;20958;-65
2024/02/26 02:33:04;;;;;;;0.40;0.20;;;11.70;69.30;;;;;;2621208;52;20978;-65
2024/02/26 02:35:30;;;;;;;1.15;0.50;;;11.70;69.40;;;;;;2369166;53;21346;-65
2024/02/26 02:37:57;;;;;;;0.73;0.32;;;11.70;69.50;;;;;;2369526;53;20974;-66
2024/02/26 02:40:24;;;;;;;0.52;0.30;;;11.70;69.50;;;;;;2369216;53;20993;-65
2024/02/26 02:42:51;;;;;;;0.80;0.40;;;11.70;69.70;;;;;;2368368;53;21315;-66
2024/02/26 02:45:17;;;;;;;0.70;0.30;;;11.70;69.70;;;;;;2620723;52;21317;-64
2024/02/26 02:47:43;;;;;;;1.30;0.40;;;11.70;69.80;;;;;;2368533;53;20945;-66
2024/02/26 02:50:10;;;;;;;0.95;0.40;;;11.70;69.80;;;;;;2369162;53;21470;-66
2024/02/26 02:52:36;;;;;;;0.45;0.30;;;11.70;69.80;;;;;;2598241;52;21731;-65
2024/02/26 02:55:05;;;;;;;1.50;0.50;;;11.70;69.80;;;;;;2364424;53;21068;-66
2024/02/26 02:57:32;;;;;;;0.70;0.30;;;11.70;69.80;;;;;;2369289;53;21025;-65
2024/02/26 02:59:58;;;;;;;0.70;0.35;;;11.70;69.80;;;;;;2600726;52;20967;-66
2024/02/26 03:02:24;;;;;;;0.62;0.40;;;11.70;69.90;;;;;;2613128;52;20938;-65
2024/02/26 03:04:51;;;;;;;1.23;0.40;;;11.70;70.00;;;;;;2367916;53;21471;-65
2024/02/26 03:07:17;;;;;;;0.43;0.28;;;11.70;70.10;;;;;;2621722;52;21400;-66
2024/02/26 03:09:44;;;;;;;1.05;0.43;;;11.70;70.10;;;;;;2619859;52;21013;-65
2024/02/26 03:12:10;;;;;;;0.62;0.30;;;11.70;70.10;;;;;;2368601;53;20954;-65
2024/02/26 03:14:36;;;;;;;0.30;0.20;;;11.80;70.40;;;;;;2368580;53;21258;-64
2024/02/26 03:17:03;;;;;;;0.35;0.30;;;11.80;70.40;;;;;;2368906;53;20930;-65
2024/02/26 03:19:29;;;;;;;0.50;0.30;;;11.80;70.50;;;;;;2621541;52;20946;-66
2024/02/26 03:21:55;;;;;;;0.93;0.40;;;11.80;70.50;;;;;;2620204;52;20934;-65
2024/02/26 03:24:22;;;;;;;1.12;0.45;;;11.80;70.60;;;;;;2369518;53;20958;-65
2024/02/26 03:26:51;;;;;;;0.75;0.30;;;11.80;70.60;;;;;;2368534;53;20946;-66
2024/02/26 03:29:18;;;;;;;0.77;0.40;;;11.80;70.60;;;;;;2621449;52;21026;-65
2024/02/26 03:31:45;;;;;;;0.57;0.30;;;11.80;70.60;;;;;;2621103;52;21038;-66
2024/02/26 03:34:12;;;;;;;0.60;0.30;;;11.80;70.60;;;;;;2369380;53;20941;-66
2024/02/26 03:36:38;;;;;;;1.08;0.40;;;11.90;70.70;;;;;;2347191;53;20983;-65
2024/02/26 03:39:07;;;;;;;0.30;0.20;;;11.90;70.70;;;;;;2368838;53;20911;-65
2024/02/26 03:41:34;;;;;;;0.65;0.30;;;11.90;70.70;;;;;;2349189;54;20990;-66
2024/02/26 03:44:01;;;;;;;0.85;0.30;;;11.90;70.70;;;;;;2368713;53;21869;-65
2024/02/26 03:46:27;;;;;;;0.60;0.30;;;11.90;70.70;;;;;;2621369;52;21025;-66
2024/02/26 03:48:55;;;;;;;0.75;0.35;;;11.90;70.70;;;;;;2368434;53;20941;-67
2024/02/26 03:51:21;;;;;;;0.68;0.30;;;11.90;70.60;;;;;;2368888;53;20936;-65
2024/02/26 03:53:47;;;;;;;0.77;0.40;;;12.00;70.80;;;;;;2621136;52;21424;-66
2024/02/26 03:56:14;;;;;;;0.50;0.32;;;12.00;70.80;;;;;;2621586;52;21404;-65
2024/02/26 03:58:40;;;;;;;0.37;0.20;;;12.00;70.80;;;;;;2368402;53;20942;-66
2024/02/26 04:01:08;;;;;;;0.62;0.30;;;12.00;70.80;;;;;;2622255;52;20931;-65
2024/02/26 04:03:34;;;;;;;0.65;0.40;;;12.00;70.70;;;;;;2621730;52;20961;-67
2024/02/26 04:06:01;;;;;;;1.92;0.57;;;12.00;70.70;;;;;;2621334;52;21379;-66
2024/02/26 04:08:27;;;;;;;0.65;0.37;;;12.00;70.60;;;;;;2621788;52;21017;-67
2024/02/26 04:10:54;;;;;;;1.17;0.45;;;12.00;70.50;;;;;;2368431;53;21423;-65
2024/02/26 04:13:20;;;;;;;1.00;0.43;;;12.00;70.50;;;;;;2604313;52;20947;-67
2024/02/26 04:15:49;;;;;;;1.23;0.40;;;12.00;70.30;;;;;;2600499;52;21347;-66
2024/02/26 04:18:16;;;;;;;0.90;0.40;;;12.00;70.10;;;;;;2353816;53;20958;-66
2024/02/26 04:20:47;;;;;;;1.80;0.70;;;12.00;70.10;;;;;;2368965;53;21293;-66
2024/02/26 04:23:13;;;;;;;1.08;0.50;;;12.00;69.90;;;;;;2369283;53;21009;-66
2024/02/26 04:25:39;;;;;;;1.23;0.50;;;11.90;70.00;;;;;;2621655;52;21302;-66
2024/02/26 04:28:06;;;;;;;0.68;0.40;;;11.90;70.00;;;;;;2340458;53;21300;-66
2024/02/26 04:30:32;;;;;;;1.67;0.40;;;11.90;70.00;;;;;;2341628;53;21526;-65
2024/02/26 04:32:58;;;;;;;0.95;0.40;;;11.80;70.00;;;;;;2586285;53;21004;-66
2024/02/26 04:35:25;;;;;;;1.65;0.70;;;11.80;70.00;;;;;;2582081;53;20956;-66
2024/02/26 04:37:51;;;;;;;1.02;0.40;;;11.80;70.10;;;;;;2343293;53;20924;-66
2024/02/26 04:40:18;;;;;;;1.52;0.60;;;11.80;70.20;;;;;;2341814;53;21340;-66
2024/02/26 04:42:44;;;;;;;1.58;0.60;;;11.80;70.30;;;;;;2587790;53;20972;-65
2024/02/26 04:45:10;;;;;;;1.73;0.70;;;11.80;70.40;;;;;;2587204;53;21493;-67
2024/02/26 04:47:37;;;;;;;0.90;0.40;;;11.70;70.40;;;;;;2586763;53;21409;-67
2024/02/26 04:50:04;;;;;;;0.80;0.45;;;11.70;70.50;;;;;;2340738;53;21033;-66
2024/02/26 04:52:30;;;;;;;1.35;0.50;;;11.70;70.50;;;;;;2341285;53;21851;-66
2024/02/26 04:54:59;;;;;;;0.60;0.40;;;11.70;70.60;;;;;;2340610;53;20953;-67
2024/02/26 04:57:26;;;;;;;1.55;0.40;;;11.70;70.70;;;;;;2587076;53;21042;-65
2024/02/26 04:59:52;;;;;;;0.55;0.30;;;11.70;70.90;;;;;;2340371;53;21509;-66
2024/02/26 05:02:18;;;;;;;0.32;0.30;;;11.70;70.90;;;;;;2343086;53;21520;-65
2024/02/26 05:04:45;;;;;;;0.62;0.35;;;11.70;70.90;;;;;;2583498;53;20984;-65
2024/02/26 05:07:12;;;;;;;0.95;0.40;;;11.70;71.00;;;;;;2340805;53;20960;-66
2024/02/26 05:09:39;;;;;;;0.37;0.20;;;11.70;71.00;;;;;;2340587;53;20924;-66
2024/02/26 05:12:06;;;;;;;0.93;0.40;;;11.70;71.10;;;;;;2340144;53;20969;-65
2024/02/26 05:14:32;;;;;;;0.45;0.20;;;11.70;71.10;;;;;;2340360;53;20955;-66
2024/02/26 05:16:59;;;;;;;0.15;0.10;;;11.70;71.20;;;;;;2340592;53;20960;-65
2024/02/26 05:19:28;;;;;;;0.50;0.28;;;11.70;71.20;;;;;;2587655;53;20949;-67
2024/02/26 05:21:54;;;;;;;0.90;0.40;;;11.80;71.40;;;;;;2583674;53;20956;-67
2024/02/26 05:24:22;;;;;;;3.30;1.45;;;11.80;71.40;;;;;;2341318;53;21014;-65
2024/02/26 05:26:48;;;;;;;2.92;1.35;;;11.80;71.40;;;;;;2337356;53;20953;-65
2024/02/26 05:29:15;;;;;;;2.25;1.10;;;11.80;71.50;;;;;;2587186;53;20912;-66
2024/02/26 05:31:44;;;;;;;1.55;0.75;;;11.80;71.60;;;;;;2587169;53;20929;-66
2024/02/26 05:34:10;;;;;;;1.60;0.60;;;11.80;71.50;;;;;;2586563;53;20949;-67
2024/02/26 05:36:37;;;;;;;1.23;0.60;;;11.80;71.60;;;;;;2586887;53;21800;-65
2024/02/26 05:39:04;;;;;;;1.12;0.40;;;11.80;71.60;;;;;;2585767;53;21020;-66
2024/02/26 05:41:30;;;;;;;1.37;0.50;;;11.80;71.60;;;;;;2336731;53;21042;-66
2024/02/26 05:43:58;;;;;;;2.40;0.80;;;11.90;71.70;;;;;;2340820;53;21023;-66
2024/02/26 05:46:25;;;;;;;3.00;1.10;;;11.90;71.70;;;;;;2587265;53;20929;-67
2024/02/26 05:48:52;;;;;;;1.70;0.70;;;11.90;71.70;;;;;;2340761;53;21171;-66
2024/02/26 05:51:18;;;;;;;1.40;0.60;;;11.90;71.70;;;;;;2341226;53;21232;-65
2024/02/26 05:53:46;;;;;;;1.12;0.50;;;11.90;71.70;;;;;;2339023;53;20976;-67
2024/02/26 05:56:15;;;;;;;0.90;0.40;;;11.90;71.70;;;;;;2569018;53;20952;-66
2024/02/26 05:58:42;;;;;;;0.80;0.40;;;11.90;71.70;;;;;;2620204;52;20942;-67
2024/02/26 06:01:09;;;;;;;0.70;0.30;;;11.90;71.60;;;;;;2619915;52;22009;-66
2024/02/26 06:03:37;;;;;;;0.60;0.40;;;11.90;71.50;;;;;;2347415;53;20952;-65
2024/02/26 06:06:04;;;;;;;0.82;0.40;;;11.90;71.50;;;;;;2365343;53;20942;-66
2024/02/26 06:08:31;;;;;;;0.60;0.40;;;11.90;71.50;;;;;;2368621;53;20946;-67
2024/02/26 06:10:57;;;;;;;0.60;0.32;;;11.90;71.60;;;;;;2586374;52;20947;-66
2024/02/26 06:13:23;;;;;;;1.02;0.50;;;12.00;71.60;;;;;;2368598;53;21432;-65
2024/02/26 06:15:52;;;;;;;0.22;0.20;;;12.00;71.70;;;;;;2586130;52;20921;-65
2024/02/26 06:18:18;;;;;;;1.52;0.40;;;12.00;71.60;;;;;;2369246;53;20954;-67
2024/02/26 06:20:46;;;;;;;0.73;0.40;;;12.00;71.70;;;;;;2620655;52;20939;-66
2024/02/26 06:23:12;;;;;;;0.50;0.30;;;12.10;71.80;;;;;;2368067;53;21062;-67
2024/02/26 06:25:38;;;;;;;1.10;0.40;;;12.00;71.60;;;;;;2621174;52;20961;-66
2024/02/26 06:28:05;;;;;;;0.93;0.40;;;12.00;71.50;;;;;;2367815;53;20918;-66
2024/02/26 06:30:31;;;;;;;5.32;1.80;;;12.00;71.50;;;;;;2368689;53;20985;-67
2024/02/26 06:32:58;;;;;;;3.75;1.77;;;12.00;71.50;;;;;;2367167;53;20966;-66
2024/02/26 06:35:24;;;;;;;4.07;1.37;;;12.00;71.40;;;;;;2620660;52;20993;-66
2024/02/26 06:37:52;;;;;;;3.00;1.15;;;12.00;71.40;;;;;;2368667;53;20983;-65
2024/02/26 06:40:19;;;;;;;2.47;0.90;;;12.00;71.40;;;;;;2343891;53;20992;-66
2024/02/26 06:42:46;;;;;;;2.35;0.80;;;12.00;71.40;;;;;;2337093;53;21193;-65
2024/02/26 06:45:15;;;;;;;1.55;0.55;;;12.00;71.30;;;;;;2583918;53;25352;-66
2024/02/26 06:47:42;;;;;;;1.62;0.60;;;12.00;71.40;;;;;;2338755;53;20936;-67
2024/02/26 06:50:11;;;;;;;1.33;0.52;;;12.00;71.40;;;;;;2341345;53;21287;-67
2024/02/26 06:52:43;;;;;;;1.07;0.50;;;12.00;71.40;;;;;;2580986;53;20963;-66
2024/02/26 06:55:09;;;;;;;1.62;0.60;;;12.00;71.50;;;;;;2586745;53;21767;-66
2024/02/26 06:57:36;;;;;;;0.88;0.40;;;12.00;71.50;;;;;;2341120;53;20981;-66
2024/02/26 07:00:03;;;;;;;0.93;0.45;;;12.00;71.50;;;;;;2586201;53;20953;-67
2024/02/26 07:02:30;;;;;;;1.30;0.45;;;12.00;71.50;;;;;;2341013;53;20933;-66
2024/02/26 07:04:58;;;;;;;1.02;0.47;;;12.00;71.60;;;;;;2340322;53;20970;-66
2024/02/26 07:07:24;;;;;;;1.45;0.40;;;12.00;71.60;;;;;;2340593;53;21317;-67
2024/02/26 07:09:52;;;;;;;0.82;0.40;;;12.00;71.50;;;;;;2341124;53;20937;-66
2024/02/26 07:12:21;;;;;;;1.12;0.55;;;12.10;71.70;;;;;;2340904;53;21335;-64
2024/02/26 07:14:48;;;;;;;0.93;0.40;;;12.00;71.60;;;;;;2585890;53;20941;-65
2024/02/26 07:17:16;;;;;;;0.55;0.30;;;12.00;71.60;;;;;;2340679;53;21888;-66
2024/02/26 07:19:42;;;;;;;0.60;0.30;;;12.10;71.70;;;;;;2339484;53;20957;-65
2024/02/26 07:22:09;;;;;;;0.70;0.40;;;12.10;71.80;;;;;;2340490;53;21083;-65
2024/02/26 07:24:37;;;;;;;0.70;0.40;;;12.10;71.80;;;;;;2586367;53;21474;-66
2024/02/26 07:27:04;;;;;;;1.98;0.50;;;12.10;71.90;;;;;;2340526;53;21001;-66
2024/02/26 07:29:33;;;;;;;0.90;0.40;;;12.10;71.90;;;;;;2340550;53;21012;-66
2024/02/26 07:31:59;;;;;;;0.57;0.30;;;12.10;71.90;;;;;;2586481;53;21039;-66
2024/02/26 07:34:29;;;;;;;0.25;0.20;;;12.10;71.90;;;;;;2587062;53;21041;-66
2024/02/26 07:36:56;;;;;;;0.30;0.30;;;12.10;72.00;;;;;;2586886;52;20986;-65
2024/02/26 07:39:23;;;;;;;1.50;0.52;;;12.20;72.10;;;;;;2340384;53;20941;-67
2024/02/26 07:41:52;;;;;;;1.45;0.60;;;12.20;72.00;;;;;;2340550;54;20949;-67
2024/02/26 07:44:18;;;;;;;3.72;0.75;;;12.20;71.80;;;;;;2584322;52;20989;-66
2024/02/26 07:46:46;;;;;;;1.48;0.60;;;12.20;71.70;;;;;;2338951;54;20957;-66
2024/02/26 07:49:12;;;;;;;1.40;0.50;;;12.20;71.70;;;;;;2584744;53;21268;-67
2024/02/26 07:51:39;;;;;;;2.37;0.90;;;12.20;71.80;;;;;;2345451;53;20932;-66
2024/02/26 07:54:06;;;;;;;1.45;0.68;;;12.10;71.70;;;;;;2322193;54;21054;-65
2024/02/26 07:56:33;;;;;;;5.75;2.50;;;12.20;71.90;;;;;;2584655;52;21026;-65
2024/02/26 07:58:59;;;;;;;4.82;2.33;;;12.20;72.10;;;;;;2340302;54;20979;-65
2024/02/26 08:01:26;;;;;;;3.85;1.95;;;12.20;72.20;;;;;;2586720;53;20963;-65
2024/02/26 08:03:53;;;;;;;4.20;1.85;;;12.20;72.20;;;;;;2340244;54;20983;-65
2024/02/26 08:06:20;;;;;;;2.92;1.30;;;12.20;72.10;;;;;;2340488;54;21535;-66
2024/02/26 08:08:47;;;;;;;2.87;1.30;;;12.20;72.00;;;;;;2341179;53;20968;-67
2024/02/26 08:11:16;;;;;;;2.47;1.10;;;12.20;72.70;;;;;;2340673;53;20980;-65
2024/02/26 08:13:42;;;;;;;2.40;1.20;;;12.20;71.90;;;;;;2581111;53;20956;-66
2024/02/26 08:16:09;;;;;;;3.50;1.12;;;12.20;71.90;;;;;;2350193;54;21712;-66
2024/02/26 08:18:35;;;;;;;2.90;1.20;;;12.20;72.00;;;;;;2352549;53;21332;-67
2024/02/26 08:21:02;;;;;;;3.35;1.40;;;12.20;72.30;;;;;;2369347;53;21008;-64
2024/02/26 08:23:29;;;;;;;2.62;1.20;;;12.20;72.40;;;;;;2369497;53;21384;-65
2024/02/26 08:25:55;;;;;;;3.80;1.40;;;12.30;72.60;;;;;;2369238;53;21285;-66
2024/02/26 08:28:21;;;;;;;2.87;1.20;;;12.30;72.70;;;;;;2621135;52;21887;-67
2024/02/26 08:30:48;;;;;;;4.15;1.20;;;12.30;72.70;;;;;;2368987;53;21001;-68
2024/02/26 08:33:15;;;;;;;2.92;1.30;;;12.30;72.70;;;;;;2620090;52;21293;-68
2024/02/26 08:35:41;;;;;;;2.28;1.02;;;12.40;72.80;;;;;;2368368;53;21116;-65
2024/02/26 08:38:10;;;;;;;1.75;0.88;;;12.40;72.80;;;;;;2368994;53;21062;-65
2024/02/26 08:40:37;;;;;;;2.33;0.82;;;12.40;72.90;;;;;;2368957;53;20988;-67
2024/02/26 08:43:05;;;;;;;2.40;0.90;;;12.40;73.00;;;;;;2368899;54;21270;-65
2024/02/26 08:45:31;;;;;;;1.90;0.90;;;12.50;73.20;;;;;;2592686;52;21474;-66
2024/02/26 08:47:59;;;;;;;2.40;0.80;;;12.50;73.20;;;;;;2621859;52;20957;-66
2024/02/26 08:50:25;;;;;;;2.35;0.80;;;12.60;73.30;;;;;;2368507;53;21049;-67
2024/02/26 08:52:53;;;;;;;1.65;0.73;;;12.60;73.30;;;;;;2368370;53;20949;-67
2024/02/26 08:55:19;;;;;;;2.10;0.82;;;12.70;73.40;;;;;;2621046;52;20946;-67
2024/02/26 08:57:45;;;;;;;4.47;1.70;;;12.70;73.30;;;;;;2621733;52;20937;-66
2024/02/26 09:00:12;;;;;;;4.10;2.05;;;12.80;73.30;;;;;;2368556;53;20954;-65
2024/02/26 09:02:39;;;;;;;4.05;1.73;;;12.70;73.10;;;;;;2621130;52;21412;-66
2024/02/26 09:05:06;;;;;;;3.00;1.60;;;12.80;73.30;;;;;;2621484;52;20965;-66
2024/02/26 09:07:33;;;;;;;3.72;1.83;;;12.80;73.30;;;;;;2356196;53;20959;-67
2024/02/26 09:09:59;;;;;;;3.22;1.40;;;12.90;73.50;;;;;;2608165;52;21566;-66
2024/02/26 09:12:26;;;;;;;3.58;1.83;;;12.90;74.20;;;;;;2350415;53;21021;-66
2024/02/26 09:14:52;;;;;;;4.22;1.77;;;13.00;73.60;;;;;;2349150;53;20953;-66
2024/02/26 09:17:18;;;;;;;3.58;1.58;;;13.00;73.50;;;;;;2368752;53;20965;-67
2024/02/26 09:19:46;;;;;;;3.15;1.45;;;13.10;73.60;;;;;;2612316;52;21032;-66
2024/02/26 09:22:12;;;;;;;3.08;1.50;;;13.10;73.80;;;;;;2352315;53;21187;-67
2024/02/26 09:24:39;;;;;;;3.10;1.55;;;13.10;73.90;;;;;;2621139;52;20954;-65
2024/02/26 09:27:06;;;;;;;2.70;1.33;;;13.20;74.10;;;;;;2621883;52;21005;-67
2024/02/26 09:29:35;;;;;;;2.72;1.15;;;13.30;74.30;;;;;;2621195;52;21302;-66
2024/02/26 09:32:02;;;;;;;4.20;1.77;;;13.40;74.40;;;;;;2621797;52;21752;-66
2024/02/26 09:34:28;;;;;;;3.12;1.50;;;13.40;74.40;;;;;;2369146;53;22259;-66
2024/02/26 09:36:55;;;;;;;3.00;1.20;;;13.50;74.30;;;;;;2621534;52;21093;-66
2024/02/26 09:39:23;;;;;;;3.20;1.30;;;13.50;74.10;;;;;;2368693;53;21189;-65
2024/02/26 09:41:50;;;;;;;2.30;1.10;;;13.60;74.10;;;;;;2621269;52;20973;-66
2024/02/26 09:44:19;;;;;;;3.58;1.05;;;13.60;74.10;;;;;;2368184;53;20933;-66
2024/02/26 09:46:51;;;;;;;2.50;1.20;;;13.70;74.20;;;;;;2369075;53;20970;-67
2024/02/26 09:49:18;;;;;;;3.80;1.07;;;13.70;74.10;;;;;;2339661;54;20994;-67
2024/02/26 09:51:45;;;;;;;2.35;1.10;;;13.70;74.30;;;;;;2368299;53;21534;-68
2024/02/26 09:54:14;;;;;;;2.95;1.37;;;13.80;74.40;;;;;;2368624;53;20981;-66
2024/02/26 09:56:41;;;;;;;2.87;1.40;;;13.90;74.40;;;;;;2368428;53;21014;-66
2024/02/26 09:59:15;;;;;;;2.37;1.20;;;13.90;74.60;;;;;;2620944;52;21474;-67
2024/02/26 10:01:41;;;;;;;2.10;0.90;;;14.00;74.70;;;;;;2620981;52;20930;-67
2024/02/26 10:04:09;;;;;;;3.50;1.30;;;14.10;74.90;;;;;;2369152;53;20950;-66
2024/02/26 10:06:35;;;;;;;2.70;1.20;;;14.10;74.90;;;;;;2368669;53;21294;-67
2024/02/26 10:09:04;;;;;;;2.90;1.67;;;14.20;75.00;;;;;;2369361;53;20961;-68
2024/02/26 10:11:30;;;;;;;2.30;1.20;;;14.20;75.00;;;;;;2357427;53;21062;-67
2024/02/26 10:13:57;;;;;;;3.05;1.50;;;14.30;75.10;;;;;;2361213;53;21021;-65
2024/02/26 10:16:23;;;;;;;3.00;1.40;;;14.40;75.20;;;;;;2368162;53;20954;-67
2024/02/26 10:18:50;;;;;;;3.22;1.58;;;14.50;75.20;;;;;;2368615;53;20926;-67
2024/02/26 10:21:18;;;;;;;3.70;1.60;;;14.60;75.20;;;;;;2344696;54;20941;-66
2024/02/26 10:23:45;;;;;;;2.95;1.60;;;14.70;75.20;;;;;;2601780;52;21360;-65
2024/02/26 10:26:13;;;;;;;2.78;1.33;;;14.70;75.10;;;;;;2366260;53;20964;-66
2024/02/26 10:28:40;;;;;;;3.28;1.65;;;14.70;75.20;;;;;;2599581;52;20937;-67
2024/02/26 10:31:06;;;;;;;3.33;1.87;;;14.90;75.50;;;;;;2621336;52;21233;-66
2024/02/26 10:33:36;;;;;;;3.40;1.75;;;14.90;75.50;;;;;;2368796;53;21490;-66
2024/02/26 10:36:05;;;;;;;3.47;1.75;;;15.00;75.70;;;;;;2369259;53;20985;-68
2024/02/26 10:38:32;;;;;;;3.60;1.62;;;15.10;75.70;;;;;;2621285;52;21033;-67
2024/02/26 10:40:59;;;;;;;3.35;1.62;;;15.20;75.40;;;;;;2621838;52;21018;-66
2024/02/26 10:43:25;;;;;;;2.33;1.15;;;15.20;75.20;;;;;;2368776;53;21435;-67
2024/02/26 10:45:52;;;;;;;2.67;1.40;;;15.30;75.30;;;;;;2368666;53;20957;-66
2024/02/26 10:48:18;;;;;;;3.20;1.40;;;15.40;75.20;;;;;;2368941;53;20918;-68
2024/02/26 10:50:47;;;;;;;3.37;1.08;;;15.50;75.00;;;;;;2368476;53;21077;-66
2024/02/26 10:53:22;;;;;;;2.87;1.08;;;15.50;74.50;;;;;;2621408;52;20950;-68
2024/02/26 10:56:03;;;;;;;1.60;0.80;;;15.50;74.40;;;;;;2621127;52;21017;-67
2024/02/26 10:58:29;;;;;;;2.00;0.90;;;15.60;74.90;;;;;;2357007;53;21014;-66
2024/02/26 11:00:56;;;;;;;1.85;0.88;;;15.60;74.30;;;;;;2610110;52;21242;-66
2024/02/26 11:03:23;;;;;;;2.12;1.00;;;15.70;74.30;;;;;;2363882;53;21019;-67
2024/02/26 11:05:49;;;;;;;1.55;0.62;;;15.70;74.20;;;;;;2353275;53;20914;-66
2024/02/26 11:08:19;;;;;;;2.30;1.00;;;15.80;74.30;;;;;;2355207;53;20959;-66
2024/02/26 11:10:48;;;;;;;4.03;1.17;;;15.80;74.10;;;;;;2364145;53;21294;-66
2024/02/26 11:13:18;;;;;;;2.10;0.98;;;15.90;73.80;;;;;;2621341;52;20964;-67
2024/02/26 11:15:51;;;;;;;3.28;0.82;;;15.80;73.90;;;;;;2368340;53;21170;-66
2024/02/26 11:18:19;;;;;;;2.67;0.88;;;15.90;74.00;;;;;;2360489;53;21543;-66
2024/02/26 11:20:47;;;;;;;1.87;0.90;;;15.90;73.90;;;;;;2608459;52;20914;-67
2024/02/26 11:23:13;;;;;;;2.25;0.90;;;15.90;73.90;;;;;;2621377;52;20949;-66
2024/02/26 11:25:39;;;;;;;1.70;0.90;;;16.00;73.90;;;;;;2348571;54;20965;-67
2024/02/26 11:28:13;;;;;;;3.58;1.00;;;16.00;73.90;;;;;;2621154;52;21004;-67
2024/02/26 11:30:41;;;;;;;2.55;0.95;;;16.10;73.80;;;;;;2621016;52;21781;-66
2024/02/26 11:33:12;;;;;;;2.12;1.00;;;16.10;73.60;;;;;;2621391;52;21020;-66
2024/02/26 11:35:38;;;;;;;2.35;0.80;;;16.10;73.40;;;;;;2620929;52;21302;-68
2024/02/26 11:38:06;;;;;;;1.73;0.80;;;16.10;73.50;;;;;;2368580;53;21467;-65
2024/02/26 11:40:33;;;;;;;3.75;1.00;;;16.20;73.60;;;;;;2343869;53;20984;-68
2024/02/26 11:42:59;;;;;;;4.10;1.00;;;16.20;73.60;;;;;;2355270;53;20950;-67
2024/02/26 11:46:00;;;;;;;1.98;0.80;;;16.20;73.50;;;;;;2621462;52;21416;-67
2024/02/26 11:48:28;;;;;;;2.60;0.90;;;16.40;72.00;;;;;;2620711;52;21022;-67
2024/02/26 11:50:55;;;;;;;2.30;1.08;;;16.30;73.20;;;;;;2368368;53;20942;-66
2024/02/26 11:53:26;;;;;;;2.67;1.25;;;16.30;73.30;;;;;;2620869;52;20954;-67
2024/02/26 11:56:19;;;;;;;3.20;1.58;;;16.40;73.10;;;;;;2368216;54;21119;-66
2024/02/26 11:58:46;;;;;;;3.20;1.60;;;16.40;72.20;;;;;;2368076;53;21440;-66
2024/02/26 12:01:44;;;;;;;3.00;1.45;;;16.40;73.30;;;;;;2368715;53;21044;-66
2024/02/26 12:04:18;;;;;;;2.00;1.00;;;16.50;72.30;;;;;;2599452;52;20997;-67
2024/02/26 12:06:51;;;;;;;2.67;1.10;;;16.50;72.80;;;;;;2348221;54;20969;-67
2024/02/26 12:09:37;;;;;;;2.25;1.05;;;16.50;72.80;;;;;;2368320;53;20930;-66
2024/02/26 12:12:05;;;;;;;2.62;1.10;;;16.60;72.30;;;;;;2367912;53;20938;-66
2024/02/26 12:14:39;;;;;;;3.33;0.90;;;16.50;73.30;;;;;;2367714;53;20942;-67
2024/02/26 12:17:09;;;;;;;2.17;0.93;;;16.60;72.90;;;;;;2368635;53;21273;-68
2024/02/26 12:19:36;;;;;;;1.98;0.88;;;16.60;73.60;;;;;;2617455;52;20994;-65
2024/02/26 12:22:06;;;;;;;2.50;1.00;;;16.70;73.70;;;;;;2348987;53;21498;-66
2024/02/26 12:24:32;;;;;;;2.35;1.00;;;16.70;73.70;;;;;;2368943;53;20953;-66
2024/02/26 12:26:59;;;;;;;2.00;0.82;;;16.80;73.80;;;;;;2368381;53;20925;-68
2024/02/26 12:29:25;;;;;;;2.20;0.90;;;16.80;74.50;;;;;;2368403;53;20965;-68
2024/02/26 12:31:52;;;;;;;2.10;0.62;;;16.80;73.70;;;;;;2368573;53;20957;-67
2024/02/26 12:34:18;;;;;;;1.70;0.73;;;16.90;73.80;;;;;;2368859;53;20938;-66
2024/02/26 12:36:44;;;;;;;2.35;0.85;;;16.90;73.60;;;;;;2621151;52;21049;-67
2024/02/26 12:39:11;;;;;;;2.15;0.80;;;17.00;73.50;;;;;;2621564;52;20938;-67
2024/02/26 12:41:38;;;;;;;1.55;0.65;;;17.10;73.50;;;;;;2368664;53;20974;-66
2024/02/26 12:44:04;;;;;;;3.15;0.93;;;17.00;73.20;;;;;;2368826;53;21004;-67
2024/02/26 12:46:31;;;;;;;2.22;0.73;;;17.00;73.20;;;;;;2592046;52;20955;-68
2024/02/26 12:48:58;;;;;;;1.55;0.70;;;17.10;73.20;;;;;;2368609;53;20985;-66